sensor_id;sensor_type;location;lat;lon;timestamp;P1;durP1;ratioP1;P2;durP2;ratioP2
48925;SDS011;39838;59.938;30.642;2022-10-26T00:01:01;3.63;;;2.70;;
48925;SDS011;39838;59.938;30.642;2022-10-26T00:03:29;4.13;;;2.85;;
48925;SDS011;39838;59.938;30.642;2022-10-26T00:06:02;4.45;;;3.10;;
48925;SDS011;39838;59.938;30.642;2022-10-26T00:08:31;4.25;;;2.70;;
48925;SDS011;39838;59.938;30.642;2022-10-26T00:10:58;4.10;;;2.58;;
48925;SDS011;39838;59.938;30.642;2022-10-26T00:13:25;3.80;;;2.70;;
48925;SDS011;39838;59.938;30.642;2022-10-26T00:15:53;4.45;;;2.65;;
48925;SDS011;39838;59.938;30.642;2022-10-26T00:18:20;6.55;;;2.85;;
48925;SDS011;39838;59.938;30.642;2022-10-26T00:20:47;3.58;;;2.60;;
48925;SDS011;39838;59.938;30.642;2022-10-26T00:23:16;3.85;;;2.65;;
48925;SDS011;39838;59.938;30.642;2022-10-26T00:25:43;4.03;;;2.67;;
48925;SDS011;39838;59.938;30.642;2022-10-26T00:28:10;4.03;;;2.80;;
48925;SDS011;39838;59.938;30.642;2022-10-26T00:30:38;3.70;;;2.53;;
48925;SDS011;39838;59.938;30.642;2022-10-26T00:33:05;3.78;;;2.60;;
48925;SDS011;39838;59.938;30.642;2022-10-26T00:35:35;3.90;;;2.45;;
48925;SDS011;39838;59.938;30.642;2022-10-26T00:38:02;3.22;;;2.50;;
48925;SDS011;39838;59.938;30.642;2022-10-26T00:40:31;2.97;;;2.40;;
48925;SDS011;39838;59.938;30.642;2022-10-26T00:42:58;3.50;;;2.40;;
48925;SDS011;39838;59.938;30.642;2022-10-26T00:45:27;4.45;;;2.92;;
48925;SDS011;39838;59.938;30.642;2022-10-26T00:47:55;3.90;;;2.55;;
48925;SDS011;39838;59.938;30.642;2022-10-26T00:50:26;3.55;;;2.75;;
48925;SDS011;39838;59.938;30.642;2022-10-26T00:52:58;4.00;;;2.58;;
48925;SDS011;39838;59.938;30.642;2022-10-26T00:55:28;4.47;;;2.72;;
48925;SDS011;39838;59.938;30.642;2022-10-26T00:58:00;3.92;;;2.72;;
48925;SDS011;39838;59.938;30.642;2022-10-26T01:00:30;3.63;;;2.70;;
48925;SDS011;39838;59.938;30.642;2022-10-26T01:02:58;4.57;;;2.92;;
48925;SDS011;39838;59.938;30.642;2022-10-26T01:05:30;4.00;;;2.90;;
48925;SDS011;39838;59.938;30.642;2022-10-26T01:07:58;3.95;;;2.95;;
48925;SDS011;39838;59.938;30.642;2022-10-26T01:10:26;6.60;;;2.75;;
48925;SDS011;39838;59.938;30.642;2022-10-26T01:12:54;4.57;;;2.95;;
48925;SDS011;39838;59.938;30.642;2022-10-26T01:15:26;3.70;;;2.55;;
48925;SDS011;39838;59.938;30.642;2022-10-26T01:18:03;3.72;;;2.75;;
48925;SDS011;39838;59.938;30.642;2022-10-26T01:23:31;4.03;;;2.70;;
48925;SDS011;39838;59.938;30.642;2022-10-26T01:26:07;5.05;;;2.90;;
48925;SDS011;39838;59.938;30.642;2022-10-26T01:32:20;5.22;;;2.90;;
48925;SDS011;39838;59.938;30.642;2022-10-26T01:34:52;4.87;;;2.90;;
48925;SDS011;39838;59.938;30.642;2022-10-26T01:37:29;4.15;;;2.90;;
48925;SDS011;39838;59.938;30.642;2022-10-26T01:40:01;3.08;;;2.47;;
48925;SDS011;39838;59.938;30.642;2022-10-26T01:42:31;3.80;;;2.90;;
48925;SDS011;39838;59.938;30.642;2022-10-26T01:45:05;5.05;;;3.20;;
48925;SDS011;39838;59.938;30.642;2022-10-26T01:47:36;3.42;;;2.70;;
48925;SDS011;39838;59.938;30.642;2022-10-26T01:50:05;3.65;;;2.80;;
48925;SDS011;39838;59.938;30.642;2022-10-26T01:52:34;3.95;;;2.67;;
48925;SDS011;39838;59.938;30.642;2022-10-26T01:55:01;3.92;;;2.90;;
48925;SDS011;39838;59.938;30.642;2022-10-26T01:57:29;4.05;;;2.95;;
48925;SDS011;39838;59.938;30.642;2022-10-26T02:00:04;3.80;;;2.90;;
48925;SDS011;39838;59.938;30.642;2022-10-26T02:05:33;4.10;;;2.80;;
48925;SDS011;39838;59.938;30.642;2022-10-26T02:08:18;4.03;;;2.85;;
48925;SDS011;39838;59.938;30.642;2022-10-26T02:10:56;3.75;;;2.50;;
48925;SDS011;39838;59.938;30.642;2022-10-26T02:13:37;4.38;;;2.90;;
48925;SDS011;39838;59.938;30.642;2022-10-26T02:16:10;3.30;;;2.60;;
48925;SDS011;39838;59.938;30.642;2022-10-26T02:18:49;3.60;;;2.72;;
48925;SDS011;39838;59.938;30.642;2022-10-26T02:21:19;3.40;;;2.60;;
48925;SDS011;39838;59.938;30.642;2022-10-26T02:23:49;4.20;;;2.95;;
48925;SDS011;39838;59.938;30.642;2022-10-26T02:26:19;3.63;;;2.65;;
48925;SDS011;39838;59.938;30.642;2022-10-26T02:28:50;3.33;;;2.70;;
48925;SDS011;39838;59.938;30.642;2022-10-26T02:31:21;3.42;;;2.60;;
48925;SDS011;39838;59.938;30.642;2022-10-26T02:33:52;3.78;;;2.80;;
48925;SDS011;39838;59.938;30.642;2022-10-26T02:36:21;3.78;;;2.67;;
48925;SDS011;39838;59.938;30.642;2022-10-26T02:38:51;4.50;;;2.70;;
48925;SDS011;39838;59.938;30.642;2022-10-26T02:41:20;3.97;;;2.85;;
48925;SDS011;39838;59.938;30.642;2022-10-26T02:43:50;3.50;;;2.70;;
48925;SDS011;39838;59.938;30.642;2022-10-26T02:46:20;4.15;;;2.78;;
48925;SDS011;39838;59.938;30.642;2022-10-26T02:48:52;4.38;;;2.90;;
48925;SDS011;39838;59.938;30.642;2022-10-26T02:51:19;4.47;;;3.10;;
48925;SDS011;39838;59.938;30.642;2022-10-26T02:53:56;4.50;;;2.83;;
48925;SDS011;39838;59.938;30.642;2022-10-26T02:56:28;3.90;;;2.90;;
48925;SDS011;39838;59.938;30.642;2022-10-26T02:59:00;4.80;;;3.40;;
48925;SDS011;39838;59.938;30.642;2022-10-26T03:01:30;4.63;;;3.08;;
48925;SDS011;39838;59.938;30.642;2022-10-26T03:04:00;4.30;;;3.05;;
48925;SDS011;39838;59.938;30.642;2022-10-26T03:06:27;4.15;;;3.03;;
48925;SDS011;39838;59.938;30.642;2022-10-26T03:08:54;4.28;;;3.08;;
48925;SDS011;39838;59.938;30.642;2022-10-26T03:11:22;5.22;;;3.78;;
48925;SDS011;39838;59.938;30.642;2022-10-26T03:13:49;5.45;;;3.30;;
48925;SDS011;39838;59.938;30.642;2022-10-26T03:16:16;5.93;;;3.83;;
48925;SDS011;39838;59.938;30.642;2022-10-26T03:18:43;5.03;;;3.55;;
48925;SDS011;39838;59.938;30.642;2022-10-26T03:21:11;6.85;;;3.60;;
48925;SDS011;39838;59.938;30.642;2022-10-26T03:23:38;6.68;;;4.40;;
48925;SDS011;39838;59.938;30.642;2022-10-26T03:26:06;6.45;;;3.95;;
48925;SDS011;39838;59.938;30.642;2022-10-26T03:28:33;6.15;;;4.22;;
48925;SDS011;39838;59.938;30.642;2022-10-26T03:31:00;5.72;;;3.90;;
48925;SDS011;39838;59.938;30.642;2022-10-26T03:33:27;6.32;;;3.88;;
48925;SDS011;39838;59.938;30.642;2022-10-26T03:35:54;6.13;;;3.97;;
48925;SDS011;39838;59.938;30.642;2022-10-26T03:40:51;5.72;;;3.80;;
48925;SDS011;39838;59.938;30.642;2022-10-26T03:43:18;6.75;;;3.85;;
48925;SDS011;39838;59.938;30.642;2022-10-26T03:45:45;5.85;;;3.88;;
48925;SDS011;39838;59.938;30.642;2022-10-26T03:48:13;5.10;;;3.70;;
48925;SDS011;39838;59.938;30.642;2022-10-26T03:50:40;5.07;;;3.72;;
48925;SDS011;39838;59.938;30.642;2022-10-26T03:53:07;5.30;;;3.67;;
48925;SDS011;39838;59.938;30.642;2022-10-26T03:55:35;5.95;;;3.90;;
48925;SDS011;39838;59.938;30.642;2022-10-26T03:58:03;7.47;;;3.85;;
48925;SDS011;39838;59.938;30.642;2022-10-26T04:00:30;5.75;;;3.78;;
48925;SDS011;39838;59.938;30.642;2022-10-26T04:02:57;5.18;;;3.95;;
48925;SDS011;39838;59.938;30.642;2022-10-26T04:05:26;5.30;;;3.70;;
48925;SDS011;39838;59.938;30.642;2022-10-26T04:07:54;6.90;;;4.10;;
48925;SDS011;39838;59.938;30.642;2022-10-26T04:10:24;7.32;;;4.00;;
48925;SDS011;39838;59.938;30.642;2022-10-26T04:12:54;6.80;;;4.28;;
48925;SDS011;39838;59.938;30.642;2022-10-26T04:15:21;6.78;;;4.10;;
48925;SDS011;39838;59.938;30.642;2022-10-26T04:17:53;6.85;;;4.25;;
48925;SDS011;39838;59.938;30.642;2022-10-26T04:20:21;6.97;;;4.30;;
48925;SDS011;39838;59.938;30.642;2022-10-26T04:22:55;6.50;;;4.50;;
48925;SDS011;39838;59.938;30.642;2022-10-26T04:25:23;11.10;;;4.00;;
48925;SDS011;39838;59.938;30.642;2022-10-26T04:27:50;7.07;;;4.25;;
48925;SDS011;39838;59.938;30.642;2022-10-26T04:30:19;10.32;;;4.60;;
48925;SDS011;39838;59.938;30.642;2022-10-26T04:32:46;7.32;;;4.60;;
48925;SDS011;39838;59.938;30.642;2022-10-26T04:35:13;8.80;;;4.68;;
48925;SDS011;39838;59.938;30.642;2022-10-26T04:37:41;12.45;;;4.93;;
48925;SDS011;39838;59.938;30.642;2022-10-26T04:40:08;10.00;;;4.53;;
48925;SDS011;39838;59.938;30.642;2022-10-26T04:42:41;11.30;;;4.60;;
48925;SDS011;39838;59.938;30.642;2022-10-26T04:45:09;14.35;;;4.78;;
48925;SDS011;39838;59.938;30.642;2022-10-26T04:47:38;12.73;;;4.90;;
48925;SDS011;39838;59.938;30.642;2022-10-26T04:50:06;9.57;;;4.80;;
48925;SDS011;39838;59.938;30.642;2022-10-26T04:52:34;13.23;;;5.20;;
48925;SDS011;39838;59.938;30.642;2022-10-26T04:55:01;9.20;;;4.60;;
48925;SDS011;39838;59.938;30.642;2022-10-26T04:57:30;21.58;;;5.25;;
48925;SDS011;39838;59.938;30.642;2022-10-26T04:59:57;7.75;;;4.60;;
48925;SDS011;39838;59.938;30.642;2022-10-26T05:02:25;12.25;;;5.43;;
48925;SDS011;39838;59.938;30.642;2022-10-26T05:04:54;45.45;;;6.28;;
48925;SDS011;39838;59.938;30.642;2022-10-26T05:07:21;24.55;;;5.88;;
48925;SDS011;39838;59.938;30.642;2022-10-26T05:09:48;10.77;;;5.53;;
48925;SDS011;39838;59.938;30.642;2022-10-26T05:12:15;17.17;;;6.07;;
48925;SDS011;39838;59.938;30.642;2022-10-26T05:14:42;14.05;;;5.63;;
48925;SDS011;39838;59.938;30.642;2022-10-26T05:17:09;15.18;;;6.25;;
48925;SDS011;39838;59.938;30.642;2022-10-26T05:19:36;11.98;;;6.07;;
48925;SDS011;39838;59.938;30.642;2022-10-26T05:22:05;11.52;;;6.00;;
48925;SDS011;39838;59.938;30.642;2022-10-26T05:24:32;14.13;;;7.55;;
48925;SDS011;39838;59.938;30.642;2022-10-26T05:26:59;11.30;;;6.97;;
48925;SDS011;39838;59.938;30.642;2022-10-26T05:29:26;14.30;;;7.25;;
48925;SDS011;39838;59.938;30.642;2022-10-26T05:31:53;15.00;;;8.13;;
48925;SDS011;39838;59.938;30.642;2022-10-26T05:34:21;14.18;;;8.20;;
48925;SDS011;39838;59.938;30.642;2022-10-26T05:36:48;14.40;;;8.23;;
48925;SDS011;39838;59.938;30.642;2022-10-26T05:39:16;15.60;;;8.15;;
48925;SDS011;39838;59.938;30.642;2022-10-26T05:41:44;15.55;;;7.85;;
48925;SDS011;39838;59.938;30.642;2022-10-26T05:44:11;13.45;;;7.40;;
48925;SDS011;39838;59.938;30.642;2022-10-26T05:46:38;14.07;;;7.60;;
48925;SDS011;39838;59.938;30.642;2022-10-26T05:49:05;13.60;;;7.03;;
48925;SDS011;39838;59.938;30.642;2022-10-26T05:51:32;12.45;;;7.35;;
48925;SDS011;39838;59.938;30.642;2022-10-26T05:54:01;15.43;;;7.05;;
48925;SDS011;39838;59.938;30.642;2022-10-26T05:56:36;10.07;;;6.55;;
48925;SDS011;39838;59.938;30.642;2022-10-26T05:59:09;9.43;;;6.10;;
48925;SDS011;39838;59.938;30.642;2022-10-26T06:01:43;10.30;;;5.78;;
48925;SDS011;39838;59.938;30.642;2022-10-26T06:04:25;9.63;;;5.40;;
48925;SDS011;39838;59.938;30.642;2022-10-26T06:07:00;13.50;;;6.20;;
48925;SDS011;39838;59.938;30.642;2022-10-26T06:09:28;10.40;;;5.90;;
48925;SDS011;39838;59.938;30.642;2022-10-26T06:11:57;10.23;;;5.90;;
48925;SDS011;39838;59.938;30.642;2022-10-26T06:14:26;12.13;;;6.45;;
48925;SDS011;39838;59.938;30.642;2022-10-26T06:16:57;9.55;;;5.95;;
48925;SDS011;39838;59.938;30.642;2022-10-26T06:19:43;8.90;;;5.90;;
48925;SDS011;39838;59.938;30.642;2022-10-26T06:22:24;11.38;;;6.50;;
48925;SDS011;39838;59.938;30.642;2022-10-26T06:25:02;9.45;;;6.35;;
48925;SDS011;39838;59.938;30.642;2022-10-26T06:27:42;10.63;;;6.35;;
48925;SDS011;39838;59.938;30.642;2022-10-26T06:30:15;10.57;;;6.70;;
48925;SDS011;39838;59.938;30.642;2022-10-26T06:32:44;10.45;;;6.38;;
48925;SDS011;39838;59.938;30.642;2022-10-26T06:35:16;9.70;;;6.15;;
48925;SDS011;39838;59.938;30.642;2022-10-26T06:37:50;9.38;;;6.15;;
48925;SDS011;39838;59.938;30.642;2022-10-26T06:40:20;9.50;;;6.20;;
48925;SDS011;39838;59.938;30.642;2022-10-26T06:42:50;8.25;;;5.78;;
48925;SDS011;39838;59.938;30.642;2022-10-26T06:45:18;8.93;;;6.03;;
48925;SDS011;39838;59.938;30.642;2022-10-26T06:47:48;10.52;;;6.50;;
48925;SDS011;39838;59.938;30.642;2022-10-26T06:50:28;11.38;;;6.65;;
48925;SDS011;39838;59.938;30.642;2022-10-26T06:53:02;10.20;;;6.57;;
48925;SDS011;39838;59.938;30.642;2022-10-26T06:55:38;10.50;;;6.43;;
48925;SDS011;39838;59.938;30.642;2022-10-26T06:58:10;11.77;;;6.70;;
48925;SDS011;39838;59.938;30.642;2022-10-26T07:00:41;11.25;;;6.95;;
48925;SDS011;39838;59.938;30.642;2022-10-26T07:03:10;13.88;;;7.10;;
48925;SDS011;39838;59.938;30.642;2022-10-26T07:05:37;13.55;;;7.20;;
48925;SDS011;39838;59.938;30.642;2022-10-26T07:08:04;15.02;;;7.45;;
48925;SDS011;39838;59.938;30.642;2022-10-26T07:10:32;19.52;;;8.02;;
48925;SDS011;39838;59.938;30.642;2022-10-26T07:13:03;19.83;;;7.53;;
48925;SDS011;39838;59.938;30.642;2022-10-26T07:15:31;20.10;;;7.53;;
48925;SDS011;39838;59.938;30.642;2022-10-26T07:17:58;13.43;;;7.32;;
48925;SDS011;39838;59.938;30.642;2022-10-26T07:20:25;20.75;;;7.75;;
48925;SDS011;39838;59.938;30.642;2022-10-26T07:22:53;15.15;;;7.68;;
48925;SDS011;39838;59.938;30.642;2022-10-26T07:25:21;15.13;;;7.50;;
48925;SDS011;39838;59.938;30.642;2022-10-26T07:27:50;16.63;;;8.23;;
48925;SDS011;39838;59.938;30.642;2022-10-26T07:30:17;21.98;;;8.10;;
48925;SDS011;39838;59.938;30.642;2022-10-26T07:32:46;11.60;;;7.57;;
48925;SDS011;39838;59.938;30.642;2022-10-26T07:35:13;14.30;;;8.07;;
48925;SDS011;39838;59.938;30.642;2022-10-26T07:37:40;12.80;;;7.55;;
48925;SDS011;39838;59.938;30.642;2022-10-26T07:40:07;13.32;;;7.68;;
48925;SDS011;39838;59.938;30.642;2022-10-26T07:42:35;15.45;;;7.55;;
48925;SDS011;39838;59.938;30.642;2022-10-26T07:45:03;11.00;;;7.30;;
48925;SDS011;39838;59.938;30.642;2022-10-26T07:47:30;14.35;;;7.72;;
48925;SDS011;39838;59.938;30.642;2022-10-26T07:49:59;14.23;;;7.40;;
48925;SDS011;39838;59.938;30.642;2022-10-26T07:52:26;13.48;;;7.25;;
48925;SDS011;39838;59.938;30.642;2022-10-26T07:54:53;15.88;;;7.30;;
48925;SDS011;39838;59.938;30.642;2022-10-26T07:57:20;14.48;;;6.72;;
48925;SDS011;39838;59.938;30.642;2022-10-26T07:59:47;13.27;;;7.00;;
48925;SDS011;39838;59.938;30.642;2022-10-26T08:02:15;12.75;;;6.68;;
48925;SDS011;39838;59.938;30.642;2022-10-26T08:04:42;10.57;;;6.38;;
48925;SDS011;39838;59.938;30.642;2022-10-26T08:07:10;13.07;;;6.65;;
48925;SDS011;39838;59.938;30.642;2022-10-26T08:09:37;8.80;;;5.90;;
48925;SDS011;39838;59.938;30.642;2022-10-26T08:12:04;11.48;;;6.15;;
48925;SDS011;39838;59.938;30.642;2022-10-26T08:14:32;11.48;;;6.00;;
48925;SDS011;39838;59.938;30.642;2022-10-26T08:16:59;10.52;;;5.78;;
48925;SDS011;39838;59.938;30.642;2022-10-26T08:19:26;9.57;;;6.05;;
48925;SDS011;39838;59.938;30.642;2022-10-26T08:21:53;10.63;;;5.60;;
48925;SDS011;39838;59.938;30.642;2022-10-26T08:24:21;9.38;;;5.20;;
48925;SDS011;39838;59.938;30.642;2022-10-26T08:26:48;8.30;;;5.05;;
48925;SDS011;39838;59.938;30.642;2022-10-26T08:29:15;8.88;;;5.35;;
48925;SDS011;39838;59.938;30.642;2022-10-26T08:31:43;8.60;;;5.35;;
48925;SDS011;39838;59.938;30.642;2022-10-26T08:34:10;8.68;;;5.05;;
48925;SDS011;39838;59.938;30.642;2022-10-26T08:36:37;11.77;;;5.28;;
48925;SDS011;39838;59.938;30.642;2022-10-26T08:39:04;9.55;;;5.47;;
48925;SDS011;39838;59.938;30.642;2022-10-26T08:41:34;11.23;;;6.10;;
48925;SDS011;39838;59.938;30.642;2022-10-26T08:44:09;11.40;;;6.13;;
48925;SDS011;39838;59.938;30.642;2022-10-26T08:46:48;13.50;;;5.85;;
48925;SDS011;39838;59.938;30.642;2022-10-26T08:49:19;15.23;;;6.30;;
48925;SDS011;39838;59.938;30.642;2022-10-26T08:51:49;14.15;;;6.00;;
48925;SDS011;39838;59.938;30.642;2022-10-26T08:54:21;12.60;;;6.25;;
48925;SDS011;39838;59.938;30.642;2022-10-26T08:57:01;33.70;;;6.43;;
48925;SDS011;39838;59.938;30.642;2022-10-26T08:59:37;70.10;;;7.68;;
48925;SDS011;39838;59.938;30.642;2022-10-26T09:02:10;64.93;;;8.02;;
48925;SDS011;39838;59.938;30.642;2022-10-26T09:04:38;61.22;;;8.20;;
48925;SDS011;39838;59.938;30.642;2022-10-26T09:07:08;88.25;;;9.68;;
48925;SDS011;39838;59.938;30.642;2022-10-26T09:09:45;35.47;;;9.13;;
48925;SDS011;39838;59.938;30.642;2022-10-26T09:12:23;149.32;;;11.20;;
48925;SDS011;39838;59.938;30.642;2022-10-26T09:15:03;180.70;;;12.63;;
48925;SDS011;39838;59.938;30.642;2022-10-26T09:17:42;96.43;;;10.73;;
48925;SDS011;39838;59.938;30.642;2022-10-26T09:20:20;77.68;;;9.77;;
48925;SDS011;39838;59.938;30.642;2022-10-26T09:23:05;26.15;;;8.07;;
48925;SDS011;39838;59.938;30.642;2022-10-26T09:25:43;25.02;;;8.10;;
48925;SDS011;39838;59.938;30.642;2022-10-26T09:28:18;48.72;;;8.70;;
48925;SDS011;39838;59.938;30.642;2022-10-26T09:30:46;79.78;;;10.40;;
48925;SDS011;39838;59.938;30.642;2022-10-26T09:33:15;63.20;;;9.10;;
48925;SDS011;39838;59.938;30.642;2022-10-26T09:35:45;127.18;;;12.32;;
48925;SDS011;39838;59.938;30.642;2022-10-26T09:38:17;48.20;;;9.43;;
48925;SDS011;39838;59.938;30.642;2022-10-26T09:40:51;61.50;;;10.35;;
48925;SDS011;39838;59.938;30.642;2022-10-26T09:43:26;68.93;;;10.45;;
48925;SDS011;39838;59.938;30.642;2022-10-26T09:45:58;21.65;;;8.85;;
48925;SDS011;39838;59.938;30.642;2022-10-26T09:48:26;44.85;;;9.63;;
48925;SDS011;39838;59.938;30.642;2022-10-26T09:51:00;14.33;;;8.37;;
48925;SDS011;39838;59.938;30.642;2022-10-26T09:53:27;30.00;;;9.02;;
48925;SDS011;39838;59.938;30.642;2022-10-26T09:55:58;31.63;;;9.20;;
48925;SDS011;39838;59.938;30.642;2022-10-26T10:01:00;22.30;;;9.02;;
48925;SDS011;39838;59.938;30.642;2022-10-26T10:03:28;21.13;;;9.40;;
48925;SDS011;39838;59.938;30.642;2022-10-26T10:06:13;27.25;;;9.68;;
48925;SDS011;39838;59.938;30.642;2022-10-26T10:08:41;26.67;;;9.63;;
48925;SDS011;39838;59.938;30.642;2022-10-26T10:11:11;22.00;;;9.60;;
48925;SDS011;39838;59.938;30.642;2022-10-26T10:13:40;20.33;;;9.60;;
48925;SDS011;39838;59.938;30.642;2022-10-26T10:16:10;17.80;;;9.55;;
48925;SDS011;39838;59.938;30.642;2022-10-26T10:18:39;17.95;;;9.23;;
48925;SDS011;39838;59.938;30.642;2022-10-26T10:21:07;17.17;;;9.02;;
48925;SDS011;39838;59.938;30.642;2022-10-26T10:23:36;16.83;;;8.75;;
48925;SDS011;39838;59.938;30.642;2022-10-26T10:26:13;18.92;;;9.52;;
48925;SDS011;39838;59.938;30.642;2022-10-26T10:28:42;15.27;;;8.68;;
48925;SDS011;39838;59.938;30.642;2022-10-26T10:31:22;14.93;;;8.10;;
48925;SDS011;39838;59.938;30.642;2022-10-26T10:33:54;16.77;;;8.63;;
48925;SDS011;39838;59.938;30.642;2022-10-26T10:36:21;21.40;;;9.57;;
48925;SDS011;39838;59.938;30.642;2022-10-26T10:38:51;18.05;;;8.80;;
48925;SDS011;39838;59.938;30.642;2022-10-26T10:41:20;15.45;;;8.85;;
48925;SDS011;39838;59.938;30.642;2022-10-26T10:43:54;14.40;;;9.23;;
48925;SDS011;39838;59.938;30.642;2022-10-26T10:46:25;19.17;;;9.45;;
48925;SDS011;39838;59.938;30.642;2022-10-26T10:48:54;23.70;;;9.38;;
48925;SDS011;39838;59.938;30.642;2022-10-26T10:51:28;20.83;;;9.82;;
48925;SDS011;39838;59.938;30.642;2022-10-26T10:54:01;18.75;;;9.27;;
48925;SDS011;39838;59.938;30.642;2022-10-26T10:56:34;17.10;;;9.07;;
48925;SDS011;39838;59.938;30.642;2022-10-26T11:02:21;19.67;;;9.52;;
48925;SDS011;39838;59.938;30.642;2022-10-26T11:08:01;16.70;;;9.95;;
48925;SDS011;39838;59.938;30.642;2022-10-26T11:10:32;18.67;;;9.63;;
48925;SDS011;39838;59.938;30.642;2022-10-26T11:13:06;16.30;;;9.38;;
48925;SDS011;39838;59.938;30.642;2022-10-26T11:15:43;16.67;;;9.13;;
48925;SDS011;39838;59.938;30.642;2022-10-26T11:18:15;14.40;;;8.73;;
48925;SDS011;39838;59.938;30.642;2022-10-26T11:20:48;18.85;;;8.95;;
48925;SDS011;39838;59.938;30.642;2022-10-26T11:23:22;15.80;;;8.73;;
48925;SDS011;39838;59.938;30.642;2022-10-26T11:25:58;14.60;;;8.15;;
48925;SDS011;39838;59.938;30.642;2022-10-26T11:28:34;16.02;;;8.35;;
48925;SDS011;39838;59.938;30.642;2022-10-26T11:33:39;14.63;;;8.40;;
48925;SDS011;39838;59.938;30.642;2022-10-26T11:36:08;18.90;;;8.10;;
48925;SDS011;39838;59.938;30.642;2022-10-26T11:38:39;14.70;;;8.27;;
48925;SDS011;39838;59.938;30.642;2022-10-26T11:41:14;13.82;;;7.53;;
48925;SDS011;39838;59.938;30.642;2022-10-26T11:43:48;17.75;;;8.85;;
48925;SDS011;39838;59.938;30.642;2022-10-26T11:46:21;16.63;;;8.48;;
48925;SDS011;39838;59.938;30.642;2022-10-26T11:48:54;16.08;;;8.38;;
48925;SDS011;39838;59.938;30.642;2022-10-26T11:51:32;17.05;;;8.27;;
48925;SDS011;39838;59.938;30.642;2022-10-26T11:54:06;21.00;;;8.57;;
48925;SDS011;39838;59.938;30.642;2022-10-26T11:56:39;21.42;;;8.98;;
48925;SDS011;39838;59.938;30.642;2022-10-26T11:59:13;22.80;;;9.38;;
48925;SDS011;39838;59.938;30.642;2022-10-26T12:01:45;27.20;;;9.00;;
48925;SDS011;39838;59.938;30.642;2022-10-26T12:04:18;32.17;;;9.55;;
48925;SDS011;39838;59.938;30.642;2022-10-26T12:06:48;43.25;;;9.82;;
48925;SDS011;39838;59.938;30.642;2022-10-26T12:09:20;24.40;;;9.43;;
48925;SDS011;39838;59.938;30.642;2022-10-26T12:11:55;22.35;;;9.63;;
48925;SDS011;39838;59.938;30.642;2022-10-26T12:14:29;29.80;;;11.32;;
48925;SDS011;39838;59.938;30.642;2022-10-26T12:17:08;28.23;;;11.45;;
48925;SDS011;39838;59.938;30.642;2022-10-26T12:19:40;46.78;;;13.25;;
48925;SDS011;39838;59.938;30.642;2022-10-26T12:22:13;84.53;;;14.90;;
48925;SDS011;39838;59.938;30.642;2022-10-26T12:24:43;137.32;;;16.70;;
48925;SDS011;39838;59.938;30.642;2022-10-26T12:27:28;123.75;;;16.00;;
48925;SDS011;39838;59.938;30.642;2022-10-26T12:30:13;205.65;;;18.90;;
48925;SDS011;39838;59.938;30.642;2022-10-26T12:32:51;97.63;;;15.23;;
48925;SDS011;39838;59.938;30.642;2022-10-26T12:35:36;52.05;;;14.02;;
48925;SDS011;39838;59.938;30.642;2022-10-26T12:41:17;147.25;;;17.15;;
48925;SDS011;39838;59.938;30.642;2022-10-26T12:43:47;219.98;;;20.65;;
48925;SDS011;39838;59.938;30.642;2022-10-26T12:52:17;75.60;;;14.48;;
48925;SDS011;39838;59.938;30.642;2022-10-26T12:54:50;71.13;;;14.80;;
48925;SDS011;39838;59.938;30.642;2022-10-26T12:57:35;127.57;;;15.77;;
48925;SDS011;39838;59.938;30.642;2022-10-26T13:00:13;366.55;;;25.20;;
48925;SDS011;39838;59.938;30.642;2022-10-26T13:02:47;99.53;;;14.65;;
48925;SDS011;39838;59.938;30.642;2022-10-26T13:05:41;161.57;;;15.98;;
48925;SDS011;39838;59.938;30.642;2022-10-26T13:08:26;235.07;;;19.45;;
48925;SDS011;39838;59.938;30.642;2022-10-26T13:11:00;278.13;;;20.33;;
48925;SDS011;39838;59.938;30.642;2022-10-26T13:13:30;393.23;;;25.05;;
48925;SDS011;39838;59.938;30.642;2022-10-26T13:16:00;123.13;;;15.32;;
48925;SDS011;39838;59.938;30.642;2022-10-26T13:18:28;334.65;;;22.75;;
48925;SDS011;39838;59.938;30.642;2022-10-26T13:21:01;193.77;;;18.10;;
48925;SDS011;39838;59.938;30.642;2022-10-26T13:23:34;96.78;;;14.32;;
48925;SDS011;39838;59.938;30.642;2022-10-26T13:26:05;646.60;;;35.05;;
48925;SDS011;39838;59.938;30.642;2022-10-26T13:28:48;148.25;;;16.33;;
48925;SDS011;39838;59.938;30.642;2022-10-26T13:34:26;133.25;;;17.08;;
48925;SDS011;39838;59.938;30.642;2022-10-26T13:37:02;244.95;;;21.88;;
48925;SDS011;39838;59.938;30.642;2022-10-26T13:39:39;387.70;;;26.65;;
48925;SDS011;39838;59.938;30.642;2022-10-26T13:42:11;367.58;;;24.63;;
48925;SDS011;39838;59.938;30.642;2022-10-26T13:44:43;277.35;;;22.90;;
48925;SDS011;39838;59.938;30.642;2022-10-26T13:47:27;172.73;;;18.13;;
48925;SDS011;39838;59.938;30.642;2022-10-26T13:49:58;352.77;;;25.95;;
48925;SDS011;39838;59.938;30.642;2022-10-26T13:52:31;277.13;;;22.00;;
48925;SDS011;39838;59.938;30.642;2022-10-26T13:55:04;172.90;;;19.52;;
48925;SDS011;39838;59.938;30.642;2022-10-26T13:57:38;108.50;;;19.02;;
48925;SDS011;39838;59.938;30.642;2022-10-26T14:00:08;297.42;;;24.15;;
48925;SDS011;39838;59.938;30.642;2022-10-26T14:02:42;448.60;;;31.05;;
48925;SDS011;39838;59.938;30.642;2022-10-26T14:05:10;61.97;;;15.88;;
48925;SDS011;39838;59.938;30.642;2022-10-26T14:07:39;141.70;;;17.98;;
48925;SDS011;39838;59.938;30.642;2022-10-26T14:10:20;206.20;;;20.98;;
48925;SDS011;39838;59.938;30.642;2022-10-26T14:12:50;47.78;;;15.68;;
48925;SDS011;39838;59.938;30.642;2022-10-26T14:15:18;83.18;;;16.30;;
48925;SDS011;39838;59.938;30.642;2022-10-26T14:17:50;230.45;;;21.15;;
48925;SDS011;39838;59.938;30.642;2022-10-26T14:20:20;230.35;;;21.77;;
48925;SDS011;39838;59.938;30.642;2022-10-26T14:22:49;69.75;;;15.95;;
48925;SDS011;39838;59.938;30.642;2022-10-26T14:25:17;111.68;;;16.88;;
48925;SDS011;39838;59.938;30.642;2022-10-26T14:27:47;165.82;;;18.63;;
48925;SDS011;39838;59.938;30.642;2022-10-26T14:30:21;228.95;;;21.25;;
48925;SDS011;39838;59.938;30.642;2022-10-26T14:32:50;308.90;;;23.95;;
48925;SDS011;39838;59.938;30.642;2022-10-26T14:35:21;61.42;;;13.82;;
48925;SDS011;39838;59.938;30.642;2022-10-26T14:37:52;73.05;;;14.43;;
48925;SDS011;39838;59.938;30.642;2022-10-26T14:40:22;57.70;;;13.60;;
48925;SDS011;39838;59.938;30.642;2022-10-26T14:42:54;145.65;;;16.35;;
48925;SDS011;39838;59.938;30.642;2022-10-26T14:45:24;315.15;;;22.02;;
48925;SDS011;39838;59.938;30.642;2022-10-26T14:47:55;313.42;;;23.73;;
48925;SDS011;39838;59.938;30.642;2022-10-26T14:50:23;301.90;;;24.38;;
48925;SDS011;39838;59.938;30.642;2022-10-26T14:52:55;302.88;;;23.00;;
48925;SDS011;39838;59.938;30.642;2022-10-26T14:55:25;517.00;;;30.08;;
48925;SDS011;39838;59.938;30.642;2022-10-26T14:58:05;193.60;;;20.35;;
48925;SDS011;39838;59.938;30.642;2022-10-26T15:00:39;304.63;;;23.02;;
48925;SDS011;39838;59.938;30.642;2022-10-26T15:03:07;422.73;;;28.58;;
48925;SDS011;39838;59.938;30.642;2022-10-26T15:05:41;129.30;;;17.03;;
48925;SDS011;39838;59.938;30.642;2022-10-26T15:11:06;183.27;;;20.08;;
48925;SDS011;39838;59.938;30.642;2022-10-26T15:13:35;131.45;;;18.63;;
48925;SDS011;39838;59.938;30.642;2022-10-26T15:16:09;501.67;;;31.50;;
48925;SDS011;39838;59.938;30.642;2022-10-26T15:18:42;535.95;;;32.60;;
48925;SDS011;39838;59.938;30.642;2022-10-26T15:21:18;142.38;;;17.90;;